Time;durP1;ratioP1;P1;durP2;ratioP2;P2;SDS_P1;SDS_P2;PMS_P1;PMS_P2;Temp;Humidity;BMP_temperature;BMP_pressure;BME280_temperature;BME280_humidity;BME280_pressure;Samples;Min_cycle;Max_cycle;Signal;HPM_P1;HPM_P2
2022/05/24 00:02:21;;;;;;;4.28;2.80;;;22.70;54.20;21.70;99656.00;;;;5046110;28;20037;-70
2022/05/24 00:05:08;;;;;;;3.03;2.40;;;22.70;54.20;21.60;99664.00;;;;5046658;28;20406;-71
2022/05/24 00:07:54;;;;;;;3.80;2.80;;;22.70;54.20;21.60;99661.00;;;;5057407;28;20044;-71
2022/05/24 00:10:40;;;;;;;3.30;2.58;;;22.70;54.10;21.60;99658.00;;;;5030799;28;20041;-71
2022/05/24 00:13:26;;;;;;;3.28;2.85;;;22.60;54.00;21.60;99663.00;;;;5051352;28;20048;-71
2022/05/24 00:16:12;;;;;;;4.38;3.10;;;22.60;53.90;21.60;99662.00;;;;5043597;28;20064;-71
2022/05/24 00:18:58;;;;;;;3.80;2.80;;;22.70;53.90;21.60;99673.00;;;;5037094;28;20519;-70
2022/05/24 00:21:44;;;;;;;2.92;2.63;;;22.60;53.90;21.60;99658.00;;;;5059450;28;20033;-71
2022/05/24 00:24:31;;;;;;;3.58;2.75;;;22.60;54.00;21.60;99673.00;;;;5050779;28;20451;-71
2022/05/24 00:27:17;;;;;;;2.75;2.55;;;22.60;53.90;21.60;99671.00;;;;5045023;28;20483;-70
2022/05/24 00:30:04;;;;;;;6.25;3.00;;;22.60;53.90;21.60;99667.00;;;;5044733;28;20032;-70
2022/05/24 00:32:50;;;;;;;6.88;3.03;;;22.60;53.90;21.60;99673.00;;;;5060132;28;20125;-71
2022/05/24 00:35:36;;;;;;;3.67;2.92;;;22.60;53.80;21.60;99666.00;;;;5045855;28;20033;-71
2022/05/24 00:38:39;;;;;;;3.83;2.50;;;22.60;53.90;21.60;99657.00;;;;5059009;28;20049;-71
2022/05/24 00:41:40;;;;;;;2.38;2.17;;;22.60;53.80;21.60;99643.00;;;;5034280;28;20403;-71
2022/05/24 00:44:33;;;;;;;6.35;2.75;;;22.60;53.90;21.60;99657.00;;;;5034637;28;20049;-71
2022/05/24 00:47:27;;;;;;;4.50;2.63;;;22.60;53.70;21.70;99653.00;;;;5044577;28;20037;-71
2022/05/24 00:50:26;;;;;;;3.90;2.60;;;22.60;53.80;21.70;99664.00;;;;5044316;28;20110;-70
2022/05/24 00:53:43;;;;;;;3.60;2.75;;;22.60;53.80;21.60;99669.00;;;;5021241;28;20045;-70
2022/05/24 00:56:53;;;;;;;3.45;2.95;;;22.60;53.60;21.60;99670.00;;;;5016452;28;20107;-70
2022/05/24 00:59:55;;;;;;;3.05;2.78;;;22.60;53.70;21.60;99675.00;;;;5053338;28;20641;-71
2022/05/24 01:02:43;;;;;;;5.32;3.65;;;22.60;53.50;21.60;99680.00;;;;5044251;28;20414;-71
2022/05/24 01:05:30;;;;;;;5.57;4.10;;;22.60;53.50;21.60;99673.00;;;;5059649;28;20094;-70
2022/05/24 01:08:16;;;;;;;5.13;4.05;;;22.60;53.40;21.60;99673.00;;;;5055890;28;20513;-70
2022/05/24 01:11:02;;;;;;;5.20;4.32;;;22.60;53.50;21.60;99668.00;;;;5045188;28;20471;-70
2022/05/24 01:13:50;;;;;;;6.97;3.85;;;22.60;53.30;21.60;99666.00;;;;5058161;28;20088;-71
2022/05/24 01:16:36;;;;;;;4.65;3.97;;;22.60;53.50;21.60;99659.00;;;;5058930;28;20047;-70
2022/05/24 01:19:41;;;;;;;6.15;4.03;;;22.60;53.50;21.70;99655.00;;;;5047818;28;20407;-70
2022/05/24 01:23:04;;;;;;;6.68;4.03;;;22.60;53.40;21.70;99661.00;;;;5033830;28;20041;-70
2022/05/24 01:26:15;;;;;;;5.22;4.32;;;22.60;53.50;21.70;99647.00;;;;5039282;28;20049;-70
2022/05/24 01:29:05;;;;;;;5.22;4.45;;;22.60;53.40;21.70;99656.00;;;;5046002;28;20107;-70
2022/05/24 01:38:02;;;;;;;7.05;4.18;;;22.60;53.60;21.70;99650.00;;;;5049069;28;20177;-70
2022/05/24 01:40:49;;;;;;;5.53;3.97;;;22.60;53.60;21.70;99645.00;;;;5046180;28;20063;-71
2022/05/24 01:43:35;;;;;;;4.70;4.25;;;22.60;53.50;21.70;99652.00;;;;5049605;28;20052;-71
2022/05/24 01:46:27;;;;;;;5.65;4.60;;;22.60;53.60;21.70;99661.00;;;;5044250;28;20052;-71
2022/05/24 01:49:25;;;;;;;6.20;4.90;;;22.60;53.50;21.70;99648.00;;;;5043483;28;20041;-71
2022/05/24 01:52:25;;;;;;;7.10;4.93;;;22.60;53.50;21.70;99651.00;;;;5040778;28;20037;-71
2022/05/24 01:55:43;;;;;;;6.78;5.15;;;22.60;53.40;21.70;99643.00;;;;5044049;28;20106;-71
2022/05/24 01:58:31;;;;;;;6.10;4.90;;;22.70;53.40;21.70;99649.00;;;;5046328;28;20655;-71
2022/05/24 02:01:23;;;;;;;6.25;5.00;;;22.70;53.50;21.70;99655.00;;;;5028245;28;20495;-71
2022/05/24 02:04:09;;;;;;;6.93;4.72;;;22.70;53.50;21.70;99645.00;;;;5057206;28;20393;-71
2022/05/24 02:07:08;;;;;;;6.30;5.00;;;22.70;53.40;21.80;99647.00;;;;5052458;28;20071;-71
2022/05/24 02:09:56;;;;;;;6.82;5.28;;;22.60;53.30;21.80;99660.00;;;;5046136;28;20483;-71
2022/05/24 02:12:52;;;;;;;5.97;5.13;;;22.70;53.40;21.80;99657.00;;;;5043912;28;20040;-71
2022/05/24 02:15:39;;;;;;;7.13;5.40;;;22.70;53.40;21.80;99660.00;;;;5040593;28;20497;-71
2022/05/24 02:18:26;;;;;;;8.82;5.68;;;22.70;53.50;21.80;99659.00;;;;5056132;28;20545;-71
2022/05/24 02:21:12;;;;;;;7.75;5.22;;;22.70;54.10;21.80;99662.00;;;;5027597;28;20045;-71
2022/05/24 02:23:58;;;;;;;7.40;5.63;;;22.70;53.50;21.80;99670.00;;;;5046111;28;20048;-71
2022/05/24 02:26:44;;;;;;;7.55;4.90;;;22.70;53.40;21.80;99669.00;;;;5045294;28;20044;-71
2022/05/24 02:29:31;;;;;;;8.18;5.72;;;22.70;53.40;21.80;99665.00;;;;5056850;28;20497;-71
2022/05/24 02:32:17;;;;;;;5.23;4.70;;;22.70;53.40;21.80;99663.00;;;;5043203;28;20046;-70
2022/05/24 02:35:03;;;;;;;7.53;5.53;;;22.70;53.40;21.80;99654.00;;;;5042204;28;20288;-71
2022/05/24 02:37:49;;;;;;;7.32;5.57;;;22.70;53.40;21.80;99659.00;;;;5047583;28;20466;-71
2022/05/24 02:43:40;;;;;;;7.75;5.68;;;22.70;53.40;21.80;99671.00;;;;5048180;28;20055;-71
2022/05/24 02:46:27;;;;;;;7.13;5.75;;;22.70;53.40;21.80;99664.00;;;;5057235;28;20095;-71
2022/05/24 02:49:13;;;;;;;6.78;5.55;;;22.70;53.30;21.80;99659.00;;;;5042267;28;20045;-71
2022/05/24 02:51:59;;;;;;;8.57;5.85;;;22.80;53.40;21.80;99652.00;;;;5053589;28;20037;-71
2022/05/24 02:54:45;;;;;;;8.05;6.68;;;22.70;53.30;21.80;99655.00;;;;5038379;28;20036;-71
2022/05/24 02:57:31;;;;;;;8.00;5.60;;;22.70;53.30;21.80;99650.00;;;;5057153;28;20041;-70
2022/05/24 03:00:22;;;;;;;7.72;6.07;;;22.70;53.30;21.80;99652.00;;;;5042217;28;20041;-71
2022/05/24 03:03:09;;;;;;;9.27;6.60;;;22.70;53.30;21.80;99652.00;;;;5047441;28;20037;-71
2022/05/24 03:05:55;;;;;;;7.80;6.00;;;22.70;53.30;21.80;99647.00;;;;5044572;28;20095;-71
2022/05/24 03:14:51;;;;;;;10.18;6.65;;;22.70;53.40;21.80;99665.00;;;;5041454;28;20394;-71
2022/05/24 03:17:37;;;;;;;8.73;6.65;;;22.70;53.40;21.80;99675.00;;;;5028326;28;20135;-70
2022/05/24 03:20:23;;;;;;;7.78;6.97;;;22.70;53.40;21.80;99671.00;;;;5045124;28;20036;-71
2022/05/24 03:23:10;;;;;;;8.70;6.85;;;22.80;53.40;21.80;99673.00;;;;5043467;28;20041;-71
2022/05/24 03:25:56;;;;;;;10.40;7.28;;;22.70;53.40;21.70;99674.00;;;;5053632;28;20059;-71
2022/05/24 03:28:42;;;;;;;11.30;7.85;;;22.70;53.40;21.80;99680.00;;;;5056193;28;20051;-71
2022/05/24 03:31:28;;;;;;;9.93;7.63;;;22.70;53.30;21.70;99682.00;;;;5023987;28;20040;-71
2022/05/24 03:34:14;;;;;;;11.07;8.13;;;22.70;53.30;21.70;99682.00;;;;5057975;28;20437;-71
2022/05/24 03:37:00;;;;;;;8.82;7.40;;;22.70;53.30;21.70;99678.00;;;;5040358;28;20292;-71
2022/05/24 03:39:46;;;;;;;9.23;7.50;;;22.70;53.30;21.70;99670.00;;;;5040132;28;20532;-71
2022/05/24 03:42:32;;;;;;;9.77;8.10;;;22.80;53.40;21.70;99682.00;;;;5047377;28;20056;-71
2022/05/24 03:45:18;;;;;;;11.70;8.95;;;22.70;53.30;21.70;99668.00;;;;5039099;28;20555;-71
2022/05/24 03:48:05;;;;;;;9.90;8.60;;;22.70;53.30;21.70;99668.00;;;;5048271;28;20045;-71
2022/05/24 03:50:51;;;;;;;13.38;9.85;;;22.70;53.30;21.70;99674.00;;;;5042387;28;20072;-71
2022/05/24 03:53:37;;;;;;;11.63;9.00;;;22.70;53.20;21.70;99670.00;;;;5048402;28;20067;-71
2022/05/24 03:56:23;;;;;;;10.18;8.80;;;22.70;53.20;21.70;99665.00;;;;5047568;28;20025;-71
2022/05/24 03:59:09;;;;;;;12.45;9.60;;;22.70;53.20;21.70;99675.00;;;;5037753;28;20037;-71
2022/05/24 04:01:55;;;;;;;11.88;8.88;;;22.70;53.20;21.70;99664.00;;;;5045854;28;20051;-71
2022/05/24 04:04:42;;;;;;;11.30;9.77;;;22.70;53.20;21.70;99669.00;;;;5046170;28;20045;-71
2022/05/24 04:07:28;;;;;;;13.98;9.77;;;22.70;53.10;21.70;99664.00;;;;5053939;28;20085;-71
2022/05/24 04:10:14;;;;;;;11.85;9.40;;;22.70;53.20;21.70;99668.00;;;;5041909;28;20527;-71
2022/05/24 04:13:01;;;;;;;12.02;9.63;;;22.70;53.20;21.70;99662.00;;;;5035184;28;20040;-71
2022/05/24 04:15:47;;;;;;;16.38;9.93;;;22.70;53.20;21.70;99673.00;;;;5046791;28;20037;-71
2022/05/24 04:18:33;;;;;;;11.38;9.32;;;22.70;53.90;21.70;99679.00;;;;5041520;28;20409;-71
2022/05/24 04:21:19;;;;;;;12.90;9.70;;;22.70;53.20;21.70;99683.00;;;;5026449;28;20060;-71
2022/05/24 04:24:06;;;;;;;11.57;9.55;;;22.70;53.20;21.70;99678.00;;;;5047921;28;20033;-71
2022/05/24 04:26:52;;;;;;;11.57;9.82;;;22.70;53.20;21.70;99684.00;;;;5041919;28;20517;-71
2022/05/24 04:29:39;;;;;;;13.48;10.25;;;22.70;53.20;21.70;99687.00;;;;5051416;28;20489;-71
2022/05/24 04:32:26;;;;;;;11.07;9.15;;;22.70;53.20;21.70;99691.00;;;;5055319;28;20037;-71
2022/05/24 04:35:12;;;;;;;11.35;9.88;;;22.70;53.30;21.70;99684.00;;;;5044146;28;20390;-71
2022/05/24 04:37:59;;;;;;;11.82;9.70;;;22.70;53.10;21.70;99690.00;;;;5042698;28;20041;-70
2022/05/24 04:43:49;;;;;;;12.02;9.13;;;22.60;53.00;21.60;99708.00;;;;5047405;28;20033;-70
2022/05/24 04:49:44;;;;;;;11.73;9.50;;;22.70;52.90;21.60;99720.00;;;;5043672;28;20457;-70
2022/05/24 04:52:33;;;;;;;12.60;9.43;;;22.70;52.80;21.60;99727.00;;;;5047451;28;20482;-70
2022/05/24 04:55:19;;;;;;;10.50;8.77;;;22.70;52.90;21.60;99725.00;;;;5043377;28;20045;-70
2022/05/24 04:58:09;;;;;;;12.63;9.20;;;22.60;52.70;21.50;99725.00;;;;5063494;28;20045;-70
2022/05/24 05:00:55;;;;;;;9.63;8.02;;;22.60;52.60;21.50;99719.00;;;;5042143;28;20168;-71
2022/05/24 05:03:41;;;;;;;9.32;7.53;;;22.60;52.50;21.50;99725.00;;;;5049099;28;20045;-70
2022/05/24 05:06:27;;;;;;;9.90;7.38;;;22.60;52.50;21.50;99730.00;;;;5042203;28;20108;-71
2022/05/24 05:09:14;;;;;;;10.25;7.20;;;22.60;52.50;21.50;99732.00;;;;5043820;28;20041;-71
2022/05/24 05:12:08;;;;;;;10.80;7.47;;;22.60;52.40;21.50;99738.00;;;;5041982;28;20044;-71
2022/05/24 05:14:54;;;;;;;7.88;7.07;;;22.50;52.50;21.50;99747.00;;;;5049114;28;20063;-70
2022/05/24 05:17:40;;;;;;;8.85;6.65;;;22.50;52.50;21.50;99746.00;;;;5046804;28;20045;-70
2022/05/24 05:20:26;;;;;;;9.73;7.90;;;22.40;52.50;21.50;99744.00;;;;5045500;28;20465;-70
2022/05/24 05:23:14;;;;;;;10.00;6.95;;;22.50;52.60;21.50;99744.00;;;;5044910;28;20041;-71
2022/05/24 05:26:00;;;;;;;9.45;6.43;;;22.50;52.50;21.50;99751.00;;;;5043666;28;20036;-70
2022/05/24 05:28:46;;;;;;;8.10;6.50;;;22.50;52.30;21.50;99753.00;;;;5053369;28;20043;-70
2022/05/24 05:31:32;;;;;;;10.75;6.45;;;22.50;52.30;21.50;99753.00;;;;5044816;28;20045;-71
2022/05/24 05:34:18;;;;;;;8.18;6.43;;;22.50;52.30;21.50;99752.00;;;;5055956;28;20033;-71
2022/05/24 05:37:06;;;;;;;8.98;5.80;;;22.40;52.00;21.40;99746.00;;;;5040773;28;20463;-71
2022/05/24 05:39:52;;;;;;;6.07;5.45;;;22.40;52.20;21.40;99755.00;;;;5046256;28;20048;-70
2022/05/24 05:42:38;;;;;;;7.45;5.47;;;22.40;51.90;21.40;99761.00;;;;5044099;28;20522;-71
2022/05/24 05:45:24;;;;;;;6.85;5.43;;;22.40;51.90;21.40;99762.00;;;;5028279;28;20269;-71
2022/05/24 05:48:10;;;;;;;7.30;5.00;;;22.50;52.00;21.40;99762.00;;;;5043377;28;20045;-71
2022/05/24 05:50:56;;;;;;;7.40;5.57;;;22.40;51.90;21.40;99756.00;;;;5039926;28;20029;-70
2022/05/24 05:53:42;;;;;;;5.97;4.50;;;22.40;51.80;21.40;99767.00;;;;5039726;28;20051;-70
2022/05/24 05:56:28;;;;;;;6.22;4.65;;;22.40;51.70;21.40;99766.00;;;;5028810;28;20056;-71
2022/05/24 05:59:14;;;;;;;6.05;4.45;;;22.40;51.60;21.30;99782.00;;;;5047297;28;20045;-70
2022/05/24 06:02:03;;;;;;;6.25;3.97;;;22.40;51.40;21.30;99787.00;;;;5058632;28;20083;-71
2022/05/24 06:04:49;;;;;;;5.93;4.10;;;22.40;51.40;21.30;99809.00;;;;5040734;28;20215;-71
2022/05/24 06:07:35;;;;;;;7.90;4.07;;;22.40;51.40;21.30;99803.00;;;;5049127;28;20508;-71
2022/05/24 06:10:21;;;;;;;5.07;3.55;;;22.30;51.40;21.30;99807.00;;;;5056684;28;20128;-71
2022/05/24 06:13:07;;;;;;;5.55;4.10;;;22.30;51.50;21.30;99809.00;;;;5048908;28;20494;-70
2022/05/24 06:15:55;;;;;;;6.13;4.40;;;22.30;51.40;21.30;99801.00;;;;5044464;28;20036;-70
2022/05/24 06:18:41;;;;;;;6.80;3.83;;;22.30;51.40;21.30;99810.00;;;;5048973;28;20040;-70
2022/05/24 06:21:28;;;;;;;6.60;3.92;;;22.30;51.40;21.30;99819.00;;;;5056917;28;20060;-71
2022/05/24 06:24:15;;;;;;;7.13;3.75;;;22.30;51.20;21.30;99838.00;;;;5046422;28;20098;-71
2022/05/24 06:27:02;;;;;;;6.40;3.60;;;22.30;51.40;21.30;99841.00;;;;5057455;28;20039;-70
2022/05/24 06:29:48;;;;;;;7.17;3.60;;;22.30;51.40;21.20;99857.00;;;;5040200;28;20096;-70
2022/05/24 06:32:34;;;;;;;4.18;3.28;;;22.20;51.30;21.20;99866.00;;;;5047207;28;20101;-70
2022/05/24 06:35:20;;;;;;;5.78;3.60;;;22.20;51.30;21.30;99877.00;;;;5048220;28;20036;-71
2022/05/24 06:38:07;;;;;;;6.80;3.72;;;22.20;51.40;21.30;99881.00;;;;5042568;28;20037;-71
2022/05/24 06:40:53;;;;;;;5.45;3.42;;;22.20;51.40;21.20;99883.00;;;;5052650;28;20294;-71
2022/05/24 06:43:39;;;;;;;6.65;3.67;;;22.20;51.40;21.30;99875.00;;;;5051532;28;20036;-71
2022/05/24 06:46:26;;;;;;;4.35;3.20;;;22.20;51.40;21.30;99873.00;;;;5045607;28;20045;-70
2022/05/24 06:49:12;;;;;;;5.45;3.35;;;22.20;51.50;21.30;99866.00;;;;5045769;28;20095;-70
2022/05/24 06:51:58;;;;;;;6.72;3.22;;;22.20;51.30;21.30;99868.00;;;;5046072;28;20047;-70
2022/05/24 06:54:44;;;;;;;5.45;3.63;;;22.20;51.50;21.30;99877.00;;;;5043956;28;20037;-70
2022/05/24 06:57:30;;;;;;;4.20;3.38;;;22.20;51.30;21.30;99877.00;;;;5038662;28;20041;-70
2022/05/24 07:03:21;;;;;;;7.25;3.25;;;22.20;51.40;21.20;99891.00;;;;5046839;28;20083;-70
2022/05/24 07:06:07;;;;;;;6.65;3.40;;;22.20;51.30;21.20;99897.00;;;;5035005;28;20034;-70
2022/05/24 07:08:54;;;;;;;4.45;3.15;;;22.20;51.30;21.20;99910.00;;;;5047427;28;20124;-70
2022/05/24 07:11:40;;;;;;;6.00;3.60;;;22.20;51.30;21.20;99908.00;;;;5044717;28;20114;-70
2022/05/24 07:14:26;;;;;;;5.95;3.70;;;22.20;51.40;21.20;99916.00;;;;5043201;28;20491;-70
2022/05/24 07:17:13;;;;;;;4.30;3.00;;;22.20;51.50;21.20;99915.00;;;;5041434;28;20033;-70
2022/05/24 07:19:59;;;;;;;5.13;3.50;;;22.20;51.70;21.20;99913.00;;;;5029861;28;20037;-70
2022/05/24 07:22:45;;;;;;;5.05;3.47;;;22.10;51.30;21.20;99920.00;;;;5043873;28;20078;-70
2022/05/24 07:25:31;;;;;;;3.92;3.03;;;22.20;51.40;21.20;99912.00;;;;5042960;28;20045;-70
2022/05/24 07:28:18;;;;;;;5.50;3.22;;;22.20;51.60;21.30;99916.00;;;;5045194;28;20049;-70
2022/05/24 07:31:04;;;;;;;6.03;3.17;;;22.20;51.70;21.30;99922.00;;;;5056374;28;20307;-70
2022/05/24 07:33:50;;;;;;;5.47;3.35;;;22.20;51.60;21.30;99923.00;;;;5041108;28;20181;-70
2022/05/24 07:36:36;;;;;;;4.15;3.47;;;22.20;51.60;21.30;99944.00;;;;5053469;28;20043;-70
2022/05/24 07:39:22;;;;;;;4.70;3.55;;;22.20;51.50;21.30;99941.00;;;;5053645;28;20045;-70
2022/05/24 07:48:18;;;;;;;3.92;3.03;;;22.20;51.80;21.30;99946.00;;;;5046908;28;20107;-70
2022/05/24 07:51:04;;;;;;;7.30;3.58;;;22.20;51.80;21.30;99954.00;;;;5052285;28;20510;-71
2022/05/24 07:53:50;;;;;;;6.75;3.35;;;22.20;51.60;21.30;99945.00;;;;5039691;28;20060;-71
2022/05/24 07:56:36;;;;;;;4.18;3.55;;;22.20;51.70;21.30;99951.00;;;;5044997;28;20033;-70
2022/05/24 07:59:23;;;;;;;5.82;3.40;;;22.20;51.50;21.30;99955.00;;;;5045792;28;20482;-71
2022/05/24 08:02:09;;;;;;;7.65;3.58;;;22.20;51.60;21.30;99955.00;;;;5047373;28;20044;-70
2022/05/24 08:04:55;;;;;;;6.68;3.80;;;22.20;51.30;21.30;99954.00;;;;5037480;28;20120;-70
2022/05/24 08:07:41;;;;;;;6.22;4.03;;;22.20;51.40;21.30;99951.00;;;;5045994;28;20051;-70
2022/05/24 08:10:28;;;;;;;4.97;3.85;;;22.20;51.30;21.30;99942.00;;;;5044471;28;20056;-71
2022/05/24 08:13:16;;;;;;;4.88;3.28;;;22.20;51.50;21.30;99952.00;;;;5045001;28;20098;-71
2022/05/24 08:16:02;;;;;;;5.35;4.00;;;22.20;51.70;21.30;99957.00;;;;5032231;28;20106;-71
2022/05/24 08:18:48;;;;;;;6.25;3.60;;;22.20;51.40;21.30;99967.00;;;;5047976;28;20067;-70
2022/05/24 08:21:34;;;;;;;6.05;3.80;;;22.20;51.50;21.30;99958.00;;;;5050009;28;20048;-70
2022/05/24 08:24:21;;;;;;;4.15;3.38;;;22.20;51.50;21.30;99951.00;;;;5059207;28;20128;-70
2022/05/24 08:27:11;;;;;;;5.72;3.67;;;22.20;51.50;21.30;99957.00;;;;5055671;28;20148;-70
2022/05/24 08:29:57;;;;;;;4.68;3.70;;;22.20;51.30;21.20;99968.00;;;;5050296;28;20040;-70
2022/05/24 08:32:44;;;;;;;4.57;3.70;;;22.20;51.30;21.20;99972.00;;;;5039705;28;20040;-71
2022/05/24 08:35:32;;;;;;;4.53;2.95;;;22.20;51.30;21.20;99986.00;;;;5067849;28;20037;-70
2022/05/24 08:38:18;;;;;;;6.53;3.63;;;22.20;51.20;21.20;99995.00;;;;5059594;28;20443;-70
2022/05/24 08:41:09;;;;;;;4.75;3.85;;;22.10;51.20;21.20;99987.00;;;;5047519;28;20041;-71
2022/05/24 08:50:21;;;;;;;4.30;3.03;;;22.20;51.00;21.10;99989.00;;;;5046185;28;20171;-70
2022/05/24 08:53:10;;;;;;;5.70;3.20;;;22.20;51.10;21.10;99985.00;;;;5043126;28;20118;-70
2022/05/24 08:55:57;;;;;;;5.25;3.00;;;22.20;50.90;21.10;99984.00;;;;5066312;28;20044;-70
2022/05/24 08:58:50;;;;;;;3.33;2.80;;;22.10;50.80;21.10;99987.00;;;;5046499;28;20131;-70
2022/05/24 09:01:36;;;;;;;4.72;2.60;;;22.10;50.70;21.10;99993.00;;;;5043255;28;20041;-70
2022/05/24 09:04:22;;;;;;;3.67;2.42;;;22.10;50.80;21.10;99994.00;;;;5039658;28;20088;-70
2022/05/24 09:07:53;;;;;;;3.92;2.50;;;22.10;50.80;21.10;99991.00;;;;5058549;28;20506;-70
2022/05/24 09:10:51;;;;;;;4.03;2.22;;;22.10;50.60;21.10;100000.00;;;;5035782;28;20474;-70
2022/05/24 09:13:52;;;;;;;3.50;2.03;;;22.10;50.50;21.00;99994.00;;;;5048899;28;20284;-70
2022/05/24 09:16:56;;;;;;;5.07;1.85;;;22.10;50.50;21.00;99996.00;;;;5062247;28;20491;-71
2022/05/24 09:19:45;;;;;;;4.88;1.90;;;22.10;50.50;21.00;100000.00;;;;5043002;28;20041;-70
2022/05/24 09:22:33;;;;;;;3.17;1.70;;;22.00;50.40;21.00;99998.00;;;;5054464;28;20506;-70
2022/05/24 09:25:19;;;;;;;1.85;1.23;;;22.00;50.60;21.00;99999.00;;;;5044067;28;20113;-70
2022/05/24 09:28:05;;;;;;;5.00;1.90;;;22.10;50.60;21.00;99999.00;;;;5057720;28;20384;-70
2022/05/24 09:30:51;;;;;;;2.53;1.60;;;22.00;50.50;21.00;100012.00;;;;5057078;28;20028;-71
2022/05/24 09:33:40;;;;;;;3.03;1.75;;;22.00;50.40;21.00;100011.00;;;;5053788;28;20479;-71
2022/05/24 09:36:39;;;;;;;3.03;1.42;;;22.00;50.60;21.10;100032.00;;;;5060525;28;20486;-71
2022/05/24 09:39:36;;;;;;;3.30;1.40;;;22.00;50.40;21.00;100035.00;;;;5034379;28;20140;-71
2022/05/24 09:42:36;;;;;;;3.05;1.15;;;22.00;50.90;21.00;100029.00;;;;5045093;28;20045;-71
2022/05/24 09:45:26;;;;;;;2.35;0.98;;;22.00;50.00;21.00;100040.00;;;;5032332;28;20040;-71
2022/05/24 09:48:22;;;;;;;4.50;1.95;;;22.10;50.30;21.00;100046.00;;;;5054791;28;20048;-70
2022/05/24 09:51:12;;;;;;;1.10;1.00;;;22.00;49.80;21.00;100048.00;;;;5043931;28;20188;-71
2022/05/24 09:53:58;;;;;;;1.73;1.20;;;22.00;49.70;21.00;100048.00;;;;5042613;28;20044;-71
2022/05/24 09:57:06;;;;;;;2.17;0.98;;;22.00;49.70;21.00;100044.00;;;;5042459;28;20038;-71
2022/05/24 10:00:20;;;;;;;2.20;0.90;;;22.00;49.70;21.00;100054.00;;;;5057589;28;20044;-71
2022/05/24 10:03:08;;;;;;;2.83;0.82;;;22.00;50.40;21.00;100040.00;;;;5048107;28;20068;-71
2022/05/24 10:06:21;;;;;;;1.85;1.00;;;22.00;49.90;21.00;100059.00;;;;5049010;28;20036;-71
2022/05/24 10:09:48;;;;;;;2.47;1.00;;;22.00;49.60;21.00;100073.00;;;;5050075;28;20041;-71
2022/05/24 10:13:01;;;;;;;1.80;0.98;;;22.00;49.70;21.00;100062.00;;;;5044304;28;20395;-71
2022/05/24 10:16:00;;;;;;;2.05;0.70;;;22.00;49.40;20.90;100073.00;;;;5060888;28;20036;-70
2022/05/24 10:19:15;;;;;;;;;;;22.00;49.40;20.90;100078.00;;;;5076620;28;20048;-70
2022/05/24 10:22:41;;;;;;;2.92;0.82;;;22.00;49.90;20.90;100068.00;;;;5061242;28;19916;-71
2022/05/24 10:25:40;;;;;;;2.42;0.90;;;22.00;49.50;20.90;100067.00;;;;5056141;28;20048;-70
2022/05/24 10:28:45;;;;;;;0.98;0.60;;;22.00;49.40;20.90;100073.00;;;;5063940;28;20056;-70
2022/05/24 10:31:58;;;;;;;4.93;1.00;;;22.00;49.50;21.00;100082.00;;;;5060690;28;20064;-71
2022/05/24 10:38:18;;;;;;;1.55;0.82;;;22.00;49.40;21.00;100086.00;;;;5047259;28;20059;-71
2022/05/24 10:41:12;;;;;;;2.20;1.00;;;22.00;49.30;21.00;100085.00;;;;5057481;28;20146;-70
2022/05/24 10:44:13;;;;;;;3.70;0.90;;;22.00;49.20;21.00;100084.00;;;;5060896;28;20041;-71
2022/05/24 10:47:06;;;;;;;1.40;0.98;;;22.00;49.10;21.00;100091.00;;;;5055512;28;20078;-71
2022/05/24 10:50:01;;;;;;;2.80;0.75;;;22.00;49.10;21.00;100095.00;;;;5043271;28;20063;-71
2022/05/24 10:53:22;;;;;;;1.52;0.63;;;21.90;49.00;21.00;100086.00;;;;5050356;28;20032;-70
2022/05/24 10:57:05;;;;;;;1.33;0.65;;;22.00;49.00;21.00;100088.00;;;;5049959;28;20514;-71
2022/05/24 11:00:04;;;;;;;2.30;0.63;;;22.00;48.90;21.00;100088.00;;;;5054071;28;20040;-71
2022/05/24 11:03:11;;;;;;;2.20;0.93;;;22.00;48.90;21.00;100088.00;;;;5048437;28;20033;-70
2022/05/24 11:06:31;;;;;;;2.80;0.90;;;22.00;49.00;21.00;100087.00;;;;5060415;28;20404;-70
2022/05/24 11:09:19;;;;;;;1.33;0.82;;;22.00;49.00;21.00;100090.00;;;;5059847;28;20541;-70
2022/05/24 11:12:09;;;;;;;1.20;0.70;;;22.00;49.00;21.00;100086.00;;;;5050100;28;20037;-70
2022/05/24 11:15:05;;;;;;;2.33;0.70;;;22.00;49.00;21.00;100077.00;;;;5059364;28;20068;-70
2022/05/24 11:17:51;;;;;;;0.85;0.63;;;22.00;49.00;21.00;100092.00;;;;5053657;28;20509;-71
2022/05/24 11:20:39;;;;;;;3.10;0.90;;;22.10;49.10;21.00;100104.00;;;;5044053;28;20097;-71
2022/05/24 11:23:41;;;;;;;1.38;0.93;;;22.10;49.00;21.00;100086.00;;;;5045575;28;20083;-71
2022/05/24 11:26:35;;;;;;;2.33;1.20;;;22.10;48.90;21.00;100093.00;;;;5060255;28;20135;-71
2022/05/24 11:29:39;;;;;;;3.67;1.23;;;22.10;48.70;21.00;100103.00;;;;5049353;28;20040;-71
2022/05/24 11:32:47;;;;;;;1.88;0.90;;;22.10;48.60;21.00;100115.00;;;;5061804;28;20048;-71
2022/05/24 11:35:42;;;;;;;2.33;1.10;;;22.00;48.40;21.00;100100.00;;;;5064926;28;20040;-70
2022/05/24 11:38:28;;;;;;;2.25;1.20;;;22.00;48.80;21.00;100115.00;;;;5061885;28;20127;-70
2022/05/24 11:41:31;;;;;;;3.58;1.50;;;22.10;48.70;21.00;100114.00;;;;5055016;28;20045;-70
2022/05/24 11:44:38;;;;;;;2.45;1.30;;;22.10;48.70;21.00;100115.00;;;;5061808;28;20071;-70
2022/05/24 11:47:37;;;;;;;3.28;1.30;;;22.10;48.60;21.00;100124.00;;;;5049730;28;20032;-71
2022/05/24 11:50:35;;;;;;;3.97;1.15;;;22.10;48.60;21.00;100126.00;;;;5055051;28;20036;-70
2022/05/24 11:53:21;;;;;;;1.95;1.30;;;22.10;48.60;21.00;100146.00;;;;5061272;28;20048;-71
2022/05/24 11:56:10;;;;;;;3.70;1.25;;;22.10;48.90;21.10;100161.00;;;;5073454;28;20123;-70
2022/05/24 11:59:03;;;;;;;1.83;1.35;;;22.10;48.80;21.10;100164.00;;;;5061560;28;20051;-70
2022/05/24 12:01:49;;;;;;;2.30;1.40;;;22.10;49.20;21.10;100170.00;;;;5031456;28;20048;-71
2022/05/24 12:08:28;;;;;;;2.50;1.35;;;22.10;49.20;21.10;100178.00;;;;5060177;28;20049;-71
2022/05/24 12:11:17;;;;;;;3.33;2.15;;;22.10;49.30;21.10;100172.00;;;;5050765;28;20085;-71
2022/05/24 12:14:14;;;;;;;4.50;1.98;;;22.10;49.40;21.10;100173.00;;;;5067581;28;20075;-71
2022/05/24 12:17:00;;;;;;;3.75;2.40;;;22.10;49.40;21.10;100177.00;;;;5071181;28;20040;-71
2022/05/24 12:19:49;;;;;;;4.13;2.30;;;22.20;49.40;21.10;100182.00;;;;5059426;28;20037;-71
2022/05/24 12:23:07;;;;;;;2.92;2.03;;;22.10;49.20;21.10;100184.00;;;;5046673;28;20097;-71
2022/05/24 12:26:05;;;;;;;5.35;2.55;;;22.20;49.40;21.10;100192.00;;;;5072039;28;20382;-71
2022/05/24 12:28:53;;;;;;;2.58;2.38;;;22.20;49.60;21.10;100188.00;;;;5061506;28;20040;-71
2022/05/24 12:31:39;;;;;;;3.70;2.90;;;22.20;49.60;21.10;100197.00;;;;5035526;28;20037;-71
2022/05/24 12:34:25;;;;;;;4.75;3.55;;;22.20;49.40;21.10;100193.00;;;;5069232;28;20269;-71
2022/05/24 12:37:30;;;;;;;6.15;3.50;;;22.10;49.20;21.10;100215.00;;;;5060736;28;20036;-71
2022/05/24 12:40:23;;;;;;;7.57;3.72;;;22.10;49.20;21.10;100212.00;;;;5057308;28;20044;-71
2022/05/24 12:43:16;;;;;;;5.07;3.85;;;22.10;49.10;21.10;100202.00;;;;5047102;28;20391;-71
2022/05/24 12:46:02;;;;;;;6.43;3.97;;;22.10;49.20;21.10;100207.00;;;;5038615;28;20067;-71
2022/05/24 12:48:50;;;;;;;3.85;3.42;;;22.10;49.30;21.10;100208.00;;;;5045811;28;20041;-71
2022/05/24 12:51:37;;;;;;;5.88;4.78;;;22.10;49.20;21.10;100214.00;;;;5047320;28;20115;-70
2022/05/24 12:54:32;;;;;;;4.00;3.70;;;22.10;49.00;21.10;100221.00;;;;5061510;28;20371;-70
2022/05/24 12:57:23;;;;;;;4.05;3.65;;;22.10;49.00;21.10;100220.00;;;;5064325;28;20036;-71
2022/05/24 13:00:12;;;;;;;4.60;4.20;;;22.10;49.30;21.10;100215.00;;;;5058243;28;20167;-70
2022/05/24 13:02:58;;;;;;;5.03;4.53;;;22.10;49.30;21.10;100218.00;;;;5059918;28;20086;-70
2022/05/24 13:05:44;;;;;;;4.78;4.20;;;22.10;49.00;21.10;100232.00;;;;5061032;28;20717;-71
2022/05/24 13:08:30;;;;;;;5.07;4.68;;;22.10;49.30;21.10;100229.00;;;;5041715;28;20048;-71
2022/05/24 13:11:16;;;;;;;5.00;4.60;;;22.20;48.90;21.10;100231.00;;;;5065357;28;20556;-71
2022/05/24 13:14:03;;;;;;;7.20;4.95;;;22.10;48.60;21.10;100237.00;;;;5075401;28;20037;-71
2022/05/24 13:16:49;;;;;;;5.33;4.83;;;22.20;48.50;21.10;100245.00;;;;5073340;28;20044;-71
2022/05/24 13:20:10;;;;;;;5.05;4.65;;;22.20;48.40;21.10;100251.00;;;;5049535;28;20336;-71
2022/05/24 13:23:27;;;;;;;6.60;4.30;;;22.10;48.60;21.10;100259.00;;;;5046770;28;20047;-71